Time;durP1;ratioP1;P1;durP2;ratioP2;P2;SDS_P1;SDS_P2;PMS_P1;PMS_P2;Temp;Humidity;BMP_temperature;BMP_pressure;BME280_temperature;BME280_humidity;BME280_pressure;Samples;Min_cycle;Max_cycle;Signal;HPM_P1;HPM_P2
2021/05/28 00:02:08;;;;;;;15.82;10.32;;;;;;;15.97;91.11;94876.84;5070112;28;20040;-74
2021/05/28 00:04:35;;;;;;;13.05;9.27;;;;;;;15.94;90.79;94872.94;5069491;28;20421;-74
2021/05/28 00:07:02;;;;;;;14.75;9.40;;;;;;;16.00;90.79;94884.22;5072040;28;20041;-74
2021/05/28 00:09:31;;;;;;;16.65;9.70;;;;;;;15.94;91.05;94878.19;5075270;28;20041;-74
2021/05/28 00:11:57;;;;;;;13.32;10.15;;;;;;;15.94;90.71;94877.41;5073357;28;20101;-75
2021/05/28 00:14:24;;;;;;;14.55;10.10;;;;;;;15.92;91.23;94868.97;5070627;28;20098;-74
2021/05/28 00:16:51;;;;;;;14.25;8.98;;;;;;;15.81;91.14;94858.50;5070162;28;20036;-74
2021/05/28 00:19:18;;;;;;;16.23;11.40;;;;;;;15.84;91.13;94865.81;5069347;28;20037;-75
2021/05/28 00:21:45;;;;;;;13.93;10.20;;;;;;;15.70;90.94;94856.88;5072233;28;20046;-75
2021/05/28 00:24:12;;;;;;;15.82;9.80;;;;;;;15.67;90.95;94868.69;5072581;28;20043;-76
2021/05/28 00:26:39;;;;;;;12.30;9.40;;;;;;;15.63;90.83;94861.63;5072531;28;20123;-76
2021/05/28 00:29:06;;;;;;;12.30;10.73;;;;;;;15.62;90.86;94860.03;5059103;28;20097;-74
2021/05/28 00:31:32;;;;;;;13.65;10.48;;;;;;;15.53;91.04;94856.34;5073218;28;20047;-76
2021/05/28 00:33:59;;;;;;;13.15;9.98;;;;;;;15.50;91.06;94857.63;5073595;28;20036;-75
2021/05/28 00:36:26;;;;;;;13.52;10.07;;;;;;;15.44;91.40;94854.22;5073157;28;20036;-76
2021/05/28 00:38:53;;;;;;;14.45;11.05;;;;;;;15.39;91.27;94851.59;5074834;28;20071;-75
2021/05/28 00:41:20;;;;;;;14.20;9.55;;;;;;;15.20;91.56;94832.16;5072014;28;20048;-75
2021/05/28 00:43:46;;;;;;;15.77;11.02;;;;;;;15.27;91.57;94843.19;5072082;28;20036;-75
2021/05/28 00:46:13;;;;;;;15.32;11.80;;;;;;;15.06;93.60;94824.75;5073247;28;20055;-75
2021/05/28 00:48:40;;;;;;;17.25;11.02;;;;;;;15.05;93.55;94812.72;5052063;28;20129;-76
2021/05/28 00:51:07;;;;;;;16.27;11.55;;;;;;;15.05;93.01;94825.84;5051231;28;20434;-76
2021/05/28 00:53:35;;;;;;;14.88;12.32;;;;;;;14.99;92.76;94805.88;5070023;28;20517;-75
2021/05/28 00:56:02;;;;;;;23.27;12.90;;;;;;;14.94;93.36;94797.97;5073308;28;20090;-75
2021/05/28 00:58:29;;;;;;;21.83;12.98;;;;;;;14.48;97.57;94795.19;5067750;28;20052;-75
2021/05/28 01:00:56;;;;;;;18.83;13.38;;;;;;;14.22;99.65;94792.44;5068850;28;20098;-74
2021/05/28 01:03:23;;;;;;;19.60;12.27;;;;;;;14.19;99.36;94787.72;5071290;28;20036;-74
2021/05/28 01:05:49;;;;;;;22.95;13.57;;;;;;;14.24;98.70;94787.75;5067949;28;20048;-74
2021/05/28 01:08:16;;;;;;;19.30;13.50;;;;;;;14.27;98.04;94778.59;5067778;28;20421;-74
2021/05/28 01:10:44;;;;;;;16.02;13.45;;;;;;;14.36;97.01;94792.00;5070602;28;20043;-74
2021/05/28 01:13:11;;;;;;;20.42;13.93;;;;;;;14.42;96.96;94801.44;5067269;28;20037;-75
2021/05/28 01:15:39;;;;;;;19.95;13.98;;;;;;;14.45;96.95;94795.69;5067583;28;20053;-74
2021/05/28 01:18:07;;;;;;;19.48;13.68;;;;;;;14.52;96.52;94801.50;5066298;28;20044;-74
2021/05/28 01:20:35;;;;;;;16.73;12.63;;;;;;;14.52;95.13;94796.25;5066368;28;20555;-74
2021/05/28 01:23:03;;;;;;;19.67;13.60;;;;;;;14.49;94.71;94796.75;5067870;28;20043;-74
2021/05/28 01:25:31;;;;;;;17.08;14.43;;;;;;;14.37;95.04;94794.34;5069115;28;20044;-72
2021/05/28 01:27:58;;;;;;;17.17;13.55;;;;;;;14.35;95.88;94788.59;5070617;28;20551;-75
2021/05/28 01:30:26;;;;;;;17.25;14.60;;;;;;;14.38;96.30;94790.69;5067428;28;20047;-74
2021/05/28 01:32:54;;;;;;;21.83;15.60;;;;;;;14.35;96.10;94793.84;5073587;28;20040;-74
2021/05/28 01:35:21;;;;;;;20.23;15.20;;;;;;;14.21;96.60;94777.78;5068238;28;20045;-74
2021/05/28 01:37:48;;;;;;;25.48;15.85;;;;;;;14.26;97.35;94803.19;5066703;28;20067;-74
2021/05/28 01:40:17;;;;;;;24.25;16.42;;;;;;;14.22;97.57;94802.91;5070364;28;20044;-75
2021/05/28 01:42:44;;;;;;;29.10;16.20;;;;;;;14.11;97.99;94814.38;5066276;28;20048;-75
2021/05/28 01:45:11;;;;;;;20.90;16.75;;;;;;;14.09;98.14;94813.84;5070974;28;20391;-75
2021/05/28 01:47:38;;;;;;;25.40;16.85;;;;;;;13.99;98.00;94808.53;5070490;28;20041;-75
2021/05/28 01:50:08;;;;;;;26.15;17.27;;;;;;;14.00;98.55;94810.13;5069879;28;20051;-74
2021/05/28 01:52:35;;;;;;;30.40;18.02;;;;;;;14.01;98.80;94811.69;5068768;28;20056;-74
2021/05/28 01:55:05;;;;;;;26.77;17.52;;;;;;;14.01;98.67;94807.25;5047137;28;20032;-75
2021/05/28 01:57:31;;;;;;;26.00;18.10;;;;;;;13.87;99.01;94788.56;5068699;28;20033;-75
2021/05/28 01:59:59;;;;;;;22.58;17.30;;;;;;;13.86;99.23;94794.84;5068087;28;20064;-75
2021/05/28 02:02:25;;;;;;;22.38;17.65;;;;;;;13.55;100.00;94806.94;5069817;28;20051;-75
2021/05/28 02:04:52;;;;;;;22.35;17.88;;;;;;;13.23;100.00;94783.34;5065660;28;20391;-75
2021/05/28 02:07:19;;;;;;;24.70;15.05;;;;;;;13.39;100.00;94800.78;5067020;28;20040;-75
2021/05/28 02:09:46;;;;;;;23.38;17.02;;;;;;;13.46;100.00;94785.66;5065864;28;20040;-75
2021/05/28 02:12:13;;;;;;;21.13;15.40;;;;;;;13.46;99.55;94780.44;5070631;28;20063;-75
2021/05/28 02:14:40;;;;;;;20.42;16.98;;;;;;;13.50;98.22;94781.50;5070090;28;20460;-76
2021/05/28 02:17:09;;;;;;;19.63;14.52;;;;;;;13.48;98.18;94767.88;5066923;28;20039;-77
2021/05/28 02:19:36;;;;;;;22.00;15.27;;;;;;;13.55;97.36;94781.53;5069339;28;20050;-77
2021/05/28 02:22:03;;;;;;;21.17;14.88;;;;;;;13.43;97.26;94760.00;5068414;28;20040;-77
2021/05/28 02:24:29;;;;;;;22.08;15.15;;;;;;;13.53;97.17;94778.38;5048708;28;20375;-77
2021/05/28 02:26:56;;;;;;;23.05;14.07;;;;;;;13.54;97.31;94777.38;5071230;28;20094;-77
2021/05/28 02:29:23;;;;;;;22.08;14.57;;;;;;;13.49;96.95;94779.94;5069885;28;20037;-77
2021/05/28 02:31:50;;;;;;;24.30;15.65;;;;;;;13.48;97.48;94780.97;5071759;28;20053;-77
2021/05/28 02:34:17;;;;;;;20.08;15.10;;;;;;;13.48;97.56;94778.34;5072363;28;20044;-77
2021/05/28 02:36:43;;;;;;;26.23;16.52;;;;;;;13.38;98.29;94783.53;5067767;28;20052;-77
2021/05/28 02:39:10;;;;;;;22.33;16.35;;;;;;;13.13;99.76;94771.75;5070072;28;20467;-77
2021/05/28 02:41:37;;;;;;;25.25;15.77;;;;;;;13.07;100.00;94772.75;5076012;28;20056;-77
2021/05/28 02:44:04;;;;;;;31.77;14.90;;;;;;;12.84;100.00;94754.72;5073893;28;20101;-76
2021/05/28 02:46:34;;;;;;;29.80;14.75;;;;;;;12.95;100.00;94769.50;5073455;28;20032;-76
2021/05/28 02:49:02;;;;;;;19.45;14.25;;;;;;;12.94;100.00;94763.47;5069938;28;20055;-76
2021/05/28 02:51:29;;;;;;;24.08;13.98;;;;;;;12.87;100.00;94751.63;5073185;28;20040;-77
2021/05/28 02:53:56;;;;;;;18.83;14.80;;;;;;;12.97;100.00;94770.03;5059237;28;20043;-78
2021/05/28 02:56:23;;;;;;;24.15;14.10;;;;;;;13.03;100.00;94765.66;5071196;28;20041;-77
2021/05/28 02:58:50;;;;;;;25.88;15.43;;;;;;;13.06;100.00;94770.38;5075897;28;20055;-77
2021/05/28 03:01:16;;;;;;;23.25;17.52;;;;;;;13.17;100.00;94772.06;5054396;28;20498;-74
2021/05/28 03:03:43;;;;;;;23.65;17.42;;;;;;;13.19;100.00;94759.50;5068893;28;20037;-74
2021/05/28 03:06:10;;;;;;;23.70;17.63;;;;;;;13.26;100.00;94769.78;5070256;28;20097;-75
2021/05/28 03:08:37;;;;;;;27.05;16.80;;;;;;;13.26;100.00;94769.78;5068358;28;20410;-75
2021/05/28 03:11:03;;;;;;;22.77;17.58;;;;;;;13.27;100.00;94787.03;5068532;28;20040;-73
2021/05/28 03:13:31;;;;;;;23.70;17.60;;;;;;;13.34;100.00;94779.81;5068578;28;20047;-75
2021/05/28 03:15:57;;;;;;;28.48;18.00;;;;;;;13.39;100.00;94785.06;5068954;28;20127;-75
2021/05/28 03:18:33;;;;;;;23.92;18.02;;;;;;;13.40;100.00;94791.91;5049599;28;20123;-75
2021/05/28 03:21:20;;;;;;;28.05;18.30;;;;;;;13.42;100.00;94789.81;5072870;28;20036;-76
2021/05/28 03:23:49;;;;;;;31.08;19.48;;;;;;;13.39;100.00;94796.31;5070219;28;20407;-75
2021/05/28 03:26:16;;;;;;;24.73;18.63;;;;;;;13.34;100.00;94782.41;5069127;28;20131;-76
2021/05/28 03:28:43;;;;;;;41.58;21.13;;;;;;;13.49;100.00;94806.09;5069624;28;20114;-75
2021/05/28 03:31:11;;;;;;;28.55;20.55;;;;;;;13.49;100.00;94813.16;5071411;28;20048;-76
2021/05/28 03:33:38;;;;;;;30.25;20.00;;;;;;;13.47;100.00;94818.66;5070219;28;20044;-76
2021/05/28 03:36:06;;;;;;;33.45;19.60;;;;;;;13.48;100.00;94812.34;5053009;28;20501;-76
2021/05/28 03:38:33;;;;;;;34.40;21.30;;;;;;;13.58;100.00;94814.28;5073597;28;20402;-77
2021/05/28 03:41:00;;;;;;;25.63;19.73;;;;;;;13.66;100.00;94815.66;5074719;28;20054;-76
2021/05/28 03:43:26;;;;;;;29.55;21.35;;;;;;;13.64;100.00;94813.28;5074301;28;20107;-76
2021/05/28 03:45:53;;;;;;;32.38;19.83;;;;;;;13.70;100.00;94816.72;5076278;28;20775;-78
2021/05/28 03:48:20;;;;;;;29.45;19.42;;;;;;;13.75;100.00;94814.91;5074606;28;20051;-78
2021/05/28 03:50:47;;;;;;;34.85;21.42;;;;;;;13.80;100.00;94814.19;5073143;28;20051;-78
2021/05/28 03:53:13;;;;;;;28.23;21.27;;;;;;;13.85;100.00;94808.97;5077450;28;20041;-78
2021/05/28 03:55:40;;;;;;;34.15;21.85;;;;;;;13.90;100.00;94821.31;5076962;28;20465;-78
2021/05/28 03:58:07;;;;;;;31.08;22.00;;;;;;;13.90;100.00;94822.13;5072100;28;20040;-79
2021/05/28 04:00:34;;;;;;;31.90;23.85;;;;;;;13.92;100.00;94822.66;5079151;28;20480;-79
2021/05/28 04:03:01;;;;;;;33.85;22.65;;;;;;;13.91;100.00;94823.69;5077330;28;20520;-78
2021/05/28 04:05:28;;;;;;;36.53;23.50;;;;;;;13.91;100.00;94828.91;5077169;28;20786;-78
2021/05/28 04:07:55;;;;;;;32.03;23.20;;;;;;;13.91;100.00;94823.69;5074439;28;20102;-78
2021/05/28 04:10:21;;;;;;;33.28;23.45;;;;;;;13.93;100.00;94837.31;5078531;28;20036;-79
2021/05/28 04:12:48;;;;;;;35.25;23.52;;;;;;;13.90;100.00;94848.28;5074526;28;20109;-78
2021/05/28 04:15:15;;;;;;;35.47;24.13;;;;;;;13.91;100.00;94838.59;5076981;28;20509;-78
2021/05/28 04:17:42;;;;;;;29.65;22.30;;;;;;;14.03;100.00;94848.91;5080092;28;20036;-79
2021/05/28 04:20:10;;;;;;;34.22;21.83;;;;;;;14.07;100.00;94852.59;5083451;28;20039;-80
2021/05/28 04:22:36;;;;;;;31.05;21.88;;;;;;;14.14;100.00;94842.69;5080695;28;20051;-84
2021/05/28 04:25:04;;;;;;;31.77;21.33;;;;;;;14.17;100.00;94829.09;5078345;28;20074;-81
2021/05/28 04:27:31;;;;;;;32.67;22.25;;;;;;;14.10;100.00;94821.47;5080701;28;20042;-81
2021/05/28 04:29:58;;;;;;;35.15;23.48;;;;;;;14.07;100.00;94816.72;5076174;28;20521;-82
2021/05/28 04:32:24;;;;;;;33.40;22.27;;;;;;;14.15;100.00;94807.59;5078733;28;20044;-82
2021/05/28 04:34:51;;;;;;;30.42;22.10;;;;;;;14.26;100.00;94798.75;5078581;28;20048;-83
2021/05/28 04:37:18;;;;;;;29.50;21.25;;;;;;;14.42;100.00;94806.69;5077568;28;20059;-83
2021/05/28 04:39:45;;;;;;;30.48;21.90;;;;;;;14.39;100.00;94807.22;5070201;28;20094;-81
2021/05/28 04:42:12;;;;;;;31.27;23.10;;;;;;;14.31;100.00;94801.41;5078588;28;20045;-82
2021/05/28 04:44:39;;;;;;;30.10;22.77;;;;;;;14.42;100.00;94802.25;5080854;28;20040;-80
2021/05/28 04:47:06;;;;;;;36.28;23.48;;;;;;;14.31;100.00;94798.78;5076406;28;20502;-78
2021/05/28 04:49:33;;;;;;;35.55;25.05;;;;;;;14.27;100.00;94810.81;5083047;28;20040;-80
2021/05/28 04:51:59;;;;;;;37.70;22.70;;;;;;;14.36;100.00;94807.72;5075569;28;20480;-79
2021/05/28 04:54:36;;;;;;;29.35;22.88;;;;;;;14.50;100.00;94809.59;5078640;28;20042;-79
2021/05/28 04:57:03;;;;;;;36.22;21.77;;;;;;;14.62;100.00;94817.31;5079652;28;20040;-78
2021/05/28 04:59:30;;;;;;;23.58;19.30;;;;;;;14.79;100.00;94816.31;5082154;28;20054;-77
2021/05/28 05:01:56;;;;;;;26.70;20.13;;;;;;;14.86;100.00;94816.84;5055273;28;20428;-79
2021/05/28 05:04:24;;;;;;;26.05;18.90;;;;;;;14.96;100.00;94822.09;5072750;28;20044;-80
2021/05/28 05:06:50;;;;;;;31.40;20.15;;;;;;;14.92;100.00;94815.81;5073494;28;20123;-78
2021/05/28 05:09:17;;;;;;;32.28;19.63;;;;;;;15.00;100.00;94823.19;5073137;28;20037;-75
2021/05/28 05:11:44;;;;;;;30.33;20.00;;;;;;;15.12;100.00;94819.53;5068737;28;20048;-74
2021/05/28 05:14:11;;;;;;;27.02;20.67;;;;;;;15.31;100.00;94818.00;5036312;28;20040;-75
2021/05/28 05:16:37;;;;;;;27.90;18.42;;;;;;;15.39;100.00;94820.09;5065651;28;20036;-75
2021/05/28 05:19:11;;;;;;;26.25;19.02;;;;;;;15.33;100.00;94826.41;5065262;28;20758;-75
2021/05/28 05:21:39;;;;;;;33.15;20.15;;;;;;;15.28;100.00;94834.25;5065096;28;20072;-75
2021/05/28 05:24:10;;;;;;;29.42;19.38;;;;;;;15.27;100.00;94853.69;5065912;28;20534;-75
2021/05/28 05:26:38;;;;;;;24.73;18.17;;;;;;;15.09;100.00;94847.88;5047532;28;20052;-74
2021/05/28 05:29:05;;;;;;;29.45;17.05;;;;;;;15.01;100.00;94850.97;5068554;28;20040;-74
2021/05/28 05:31:31;;;;;;;23.27;17.30;;;;;;;14.88;100.00;94856.72;5067246;28;20047;-74
2021/05/28 05:33:58;;;;;;;22.10;16.80;;;;;;;14.91;100.00;94861.44;5065790;28;20041;-74
2021/05/28 05:36:26;;;;;;;23.27;16.52;;;;;;;14.78;100.00;94857.44;5065804;28;20040;-74
2021/05/28 05:38:52;;;;;;;21.20;17.65;;;;;;;14.78;100.00;94856.66;5066040;28;20506;-74
2021/05/28 05:41:19;;;;;;;20.40;17.15;;;;;;;14.84;100.00;94860.91;5064110;28;22044;-73
2021/05/28 05:43:46;;;;;;;20.92;17.65;;;;;;;14.86;100.00;94864.06;5064519;28;20051;-73
2021/05/28 05:46:13;;;;;;;24.38;17.40;;;;;;;14.89;100.00;94864.31;5064538;28;20781;-73
2021/05/28 05:48:41;;;;;;;21.27;17.80;;;;;;;14.91;100.00;94857.00;5062874;28;20055;-72
2021/05/28 05:51:08;;;;;;;21.38;16.88;;;;;;;14.93;100.00;94854.13;5065369;28;20048;-73
2021/05/28 05:53:35;;;;;;;23.35;16.58;;;;;;;15.03;100.00;94859.38;5068162;28;20047;-75
2021/05/28 05:56:02;;;;;;;26.45;21.30;;;;;;;15.08;100.00;94856.00;5066201;28;20478;-75
2021/05/28 05:58:29;;;;;;;20.33;16.33;;;;;;;15.08;100.00;94867.25;5065624;28;20036;-74
2021/05/28 06:00:56;;;;;;;18.65;15.30;;;;;;;15.26;100.00;94862.59;5065858;28;20046;-75
2021/05/28 06:03:23;;;;;;;22.35;16.17;;;;;;;15.28;100.00;94860.50;5064966;28;20127;-74
2021/05/28 06:05:50;;;;;;;21.52;15.95;;;;;;;15.39;100.00;94867.31;5059307;28;20040;-74
2021/05/28 06:08:17;;;;;;;23.35;16.98;;;;;;;15.52;100.00;94865.25;5062260;28;20559;-73
2021/05/28 06:10:43;;;;;;;24.30;16.38;;;;;;;15.63;100.00;94866.88;5062230;28;20048;-74
2021/05/28 06:13:10;;;;;;;21.33;15.18;;;;;;;15.73;100.00;94866.84;5064060;28;20060;-73
2021/05/28 06:15:37;;;;;;;23.98;16.10;;;;;;;15.83;100.00;94861.63;5063587;28;20096;-74
2021/05/28 06:18:04;;;;;;;22.98;16.27;;;;;;;15.93;99.82;94875.81;5045162;28;20091;-73
2021/05/28 06:20:31;;;;;;;21.38;16.27;;;;;;;16.11;98.01;94866.63;5062721;28;20434;-71
2021/05/28 06:22:59;;;;;;;18.02;14.60;;;;;;;16.33;98.52;94858.44;5061556;28;20423;-73
2021/05/28 06:25:27;;;;;;;25.52;16.55;;;;;;;16.59;97.08;94867.84;5060566;28;20072;-73
2021/05/28 06:27:54;;;;;;;15.18;13.40;;;;;;;16.66;94.38;94866.78;5043856;28;20058;-73
2021/05/28 06:30:21;;;;;;;16.40;13.98;;;;;;;16.81;93.27;94864.09;5061681;28;20748;-73
2021/05/28 06:32:48;;;;;;;20.63;14.63;;;;;;;16.92;94.59;94865.63;5062137;28;20056;-73
2021/05/28 06:35:15;;;;;;;18.83;13.70;;;;;;;17.06;93.54;94865.84;5063192;28;20041;-74
2021/05/28 06:37:41;;;;;;;17.45;13.93;;;;;;;17.16;92.01;94854.47;5061421;28;20422;-74
2021/05/28 06:40:11;;;;;;;16.52;14.70;;;;;;;17.28;90.98;94857.56;5063209;28;20501;-74
2021/05/28 06:42:37;;;;;;;16.48;13.25;;;;;;;17.27;89.52;94856.00;5057298;28;20546;-74
2021/05/28 06:45:06;;;;;;;20.40;13.73;;;;;;;17.32;88.90;94858.63;5064041;28;20064;-74
2021/05/28 06:47:33;;;;;;;24.48;14.20;;;;;;;17.28;88.15;94862.84;5046616;28;20517;-73
2021/05/28 06:49:59;;;;;;;18.83;14.50;;;;;;;17.25;88.49;94859.97;5060677;28;20386;-74
2021/05/28 06:52:26;;;;;;;23.90;15.43;;;;;;;17.21;89.04;94854.44;5061532;28;20063;-74
2021/05/28 06:54:53;;;;;;;19.05;16.48;;;;;;;17.11;90.04;94857.94;5064493;28;20032;-74
2021/05/28 06:57:21;;;;;;;21.23;17.33;;;;;;;17.17;91.04;94856.06;5065092;28;20044;-74
2021/05/28 06:59:48;;;;;;;19.92;15.30;;;;;;;17.19;90.17;94865.25;5065058;28;20036;-74
2021/05/28 07:02:15;;;;;;;18.90;16.50;;;;;;;17.29;91.79;94859.16;5065009;28;20060;-74
2021/05/28 07:04:42;;;;;;;21.27;15.60;;;;;;;17.44;89.88;94860.91;5065522;28;20041;-74
2021/05/28 07:07:09;;;;;;;20.40;15.38;;;;;;;17.64;88.95;94859.97;5065108;28;20059;-74
2021/05/28 07:09:36;;;;;;;23.02;15.35;;;;;;;17.75;86.90;94848.31;5062221;28;20040;-74
2021/05/28 07:12:03;;;;;;;16.70;12.50;;;;;;;17.80;85.99;94850.13;5062370;28;20048;-74
2021/05/28 07:14:30;;;;;;;13.98;12.13;;;;;;;17.94;84.76;94858.22;5045326;28;20261;-73
2021/05/28 07:16:57;;;;;;;16.60;12.15;;;;;;;18.01;84.14;94855.28;5063403;28;20080;-74
2021/05/28 07:19:23;;;;;;;16.00;11.23;;;;;;;18.37;83.79;94845.16;5063416;28;20053;-75
2021/05/28 07:21:50;;;;;;;13.27;9.35;;;;;;;18.66;81.52;94845.13;5061203;28;20052;-74
2021/05/28 07:24:17;;;;;;;10.80;8.88;;;;;;;18.82;79.46;94845.75;5064588;28;20036;-74
2021/05/28 07:26:44;;;;;;;11.13;7.15;;;;;;;18.77;77.63;94848.44;5064700;28;20513;-75
2021/05/28 07:29:12;;;;;;;11.80;8.75;;;;;;;18.76;77.79;94831.00;5067124;28;20044;-74
2021/05/28 07:31:39;;;;;;;9.93;8.68;;;;;;;18.83;78.21;94847.31;5067148;28;20398;-74
2021/05/28 07:34:06;;;;;;;5.95;4.78;;;;;;;19.00;76.43;94840.81;5067324;28;20033;-74
2021/05/28 07:36:33;;;;;;;6.28;5.22;;;;;;;19.02;75.00;94841.31;5049466;28;20060;-74
2021/05/28 07:39:00;;;;;;;7.53;6.15;;;;;;;18.86;76.11;94825.66;5067636;28;20036;-74
2021/05/28 07:41:27;;;;;;;9.50;5.60;;;;;;;19.10;76.02;94840.66;5068023;28;20048;-74
2021/05/28 07:43:59;;;;;;;6.30;5.40;;;;;;;19.21;76.97;94842.09;5068275;28;20480;-74
2021/05/28 07:46:25;;;;;;;9.90;4.00;;;;;;;18.99;73.32;94833.94;5068235;28;20425;-73
2021/05/28 07:48:52;;;;;;;12.55;4.82;;;;;;;19.03;73.90;94834.94;5068228;28;20044;-72
2021/05/28 07:51:19;;;;;;;7.95;3.95;;;;;;;18.86;73.68;94840.69;5069428;28;20037;-74
2021/05/28 07:53:46;;;;;;;6.57;3.25;;;;;;;18.90;71.71;94837.19;5065800;28;20533;-74
2021/05/28 07:56:13;;;;;;;5.15;2.90;;;;;;;19.05;71.64;94832.78;5066729;28;20128;-73
2021/05/28 07:58:40;;;;;;;4.65;2.75;;;;;;;19.08;70.97;94834.88;5068427;28;20043;-74
2021/05/28 08:01:07;;;;;;;5.65;3.03;;;;;;;18.89;71.72;94824.31;5068224;28;20032;-74
2021/05/28 08:03:34;;;;;;;3.17;2.70;;;;;;;19.20;68.31;94834.47;5067584;28;20037;-74
2021/05/28 08:06:01;;;;;;;8.68;3.70;;;;;;;19.40;67.29;94838.69;5068384;28;20514;-74
2021/05/28 08:08:28;;;;;;;3.90;3.50;;;;;;;19.49;68.54;94829.81;5050149;28;20044;-73
2021/05/28 08:10:56;;;;;;;6.22;3.40;;;;;;;19.50;68.50;94820.06;5069033;28;20041;-76
2021/05/28 08:13:23;;;;;;;8.10;4.55;;;;;;;19.59;67.39;94842.09;5068293;28;20036;-74
2021/05/28 08:15:50;;;;;;;9.55;5.10;;;;;;;19.25;67.90;94853.66;5068886;28;20437;-74
2021/05/28 08:18:16;;;;;;;7.65;4.45;;;;;;;19.30;69.11;94850.16;5067585;28;20054;-74
2021/05/28 08:20:43;;;;;;;8.98;5.90;;;;;;;19.42;69.59;94842.59;5067736;28;20127;-74
2021/05/28 08:23:10;;;;;;;12.60;5.10;;;;;;;19.48;68.62;94862.59;5069272;28;20071;-74
2021/05/28 08:25:37;;;;;;;6.22;4.80;;;;;;;19.19;69.28;94860.06;5068682;28;20202;-72
2021/05/28 08:28:04;;;;;;;7.80;5.10;;;;;;;19.10;70.13;94854.66;5065509;28;20036;-72
2021/05/28 08:30:31;;;;;;;6.30;4.85;;;;;;;18.83;70.87;94863.16;5068845;28;20032;-72
2021/05/28 08:32:57;;;;;;;19.35;5.43;;;;;;;18.74;71.14;94854.25;5067565;28;20497;-75
2021/05/28 08:35:24;;;;;;;9.30;4.50;;;;;;;18.92;71.06;94865.94;5067545;28;20039;-75
2021/05/28 08:37:51;;;;;;;8.43;4.47;;;;;;;18.89;70.06;94872.59;5068516;28;20506;-76
2021/05/28 08:40:19;;;;;;;11.48;4.05;;;;;;;18.72;70.66;94861.66;5067867;28;20040;-75
2021/05/28 08:42:48;;;;;;;7.32;4.55;;;;;;;18.59;71.73;94886.09;5066632;28;20115;-76
2021/05/28 08:45:15;;;;;;;11.40;5.35;;;;;;;18.08;73.07;94911.84;5067223;28;20460;-75
2021/05/28 08:47:43;;;;;;;8.98;6.25;;;;;;;17.97;74.93;94889.28;5063021;28;20040;-76
2021/05/28 08:50:11;;;;;;;8.57;6.95;;;;;;;17.50;74.97;94911.69;5062586;28;20639;-74
2021/05/28 08:52:38;;;;;;;10.30;6.53;;;;;;;17.19;76.66;94940.78;5064723;28;20049;-75
2021/05/28 08:55:06;;;;;;;14.13;9.65;;;;;;;16.59;78.49;94924.91;5065135;28;20064;-75
2021/05/28 08:57:33;;;;;;;17.05;10.32;;;;;;;16.56;79.21;94943.81;5066023;28;20062;-74
2021/05/28 08:59:59;;;;;;;21.75;12.05;;;;;;;16.06;79.67;94959.34;5065279;28;20045;-74
2021/05/28 09:02:40;;;;;;;14.95;12.73;;;;;;;15.71;80.72;94976.59;5062461;28;20168;-75
2021/05/28 09:05:21;;;;;;;16.55;14.35;;;;;;;15.65;81.75;94964.53;5063566;28;20468;-75
2021/05/28 09:07:59;;;;;;;22.45;15.63;;;;;;;15.30;82.83;94984.34;5065312;28;20430;-73
2021/05/28 09:10:36;;;;;;;23.70;17.65;;;;;;;15.12;83.61;94997.91;5062484;28;20044;-74
2021/05/28 09:13:11;;;;;;;24.23;17.88;;;;;;;14.93;83.56;94985.22;5062100;28;20510;-73
2021/05/28 09:15:40;;;;;;;24.33;18.58;;;;;;;14.66;83.68;94980.88;5044282;28;20056;-73
2021/05/28 09:18:07;;;;;;;22.08;17.38;;;;;;;14.42;84.20;94995.34;5062793;28;20052;-73
2021/05/28 09:20:34;;;;;;;20.88;18.50;;;;;;;14.41;84.36;94993.78;5066488;28;20126;-72
2021/05/28 09:23:15;;;;;;;21.60;19.25;;;;;;;14.16;84.54;95003.00;5064943;28;20056;-72
2021/05/28 09:26:03;;;;;;;29.30;19.85;;;;;;;14.08;84.55;95011.28;5064321;28;20033;-72
2021/05/28 09:28:41;;;;;;;25.05;18.88;;;;;;;13.91;84.13;95000.94;5064438;28;20037;-74
2021/05/28 09:31:20;;;;;;;23.08;19.02;;;;;;;13.79;84.47;95008.13;5061524;28;20054;-72
2021/05/28 09:33:50;;;;;;;25.27;18.02;;;;;;;13.71;83.69;95017.22;5064836;28;20040;-74
2021/05/28 09:36:22;;;;;;;23.65;20.52;;;;;;;13.74;84.67;95006.28;5064874;28;20103;-73
2021/05/28 09:39:12;;;;;;;30.05;20.42;;;;;;;13.62;84.93;95016.09;5064879;28;20048;-72
2021/05/28 09:41:43;;;;;;;21.95;18.15;;;;;;;13.46;86.17;95022.97;5063986;28;20139;-72
2021/05/28 09:44:23;;;;;;;22.17;19.75;;;;;;;13.36;87.99;95021.00;5062521;28;20044;-72
2021/05/28 09:47:14;;;;;;;25.05;21.98;;;;;;;13.33;90.56;95005.81;5064467;28;20065;-71
2021/05/28 09:49:51;;;;;;;29.13;22.80;;;;;;;13.28;92.82;95013.56;5042758;28;20052;-71
2021/05/28 09:52:23;;;;;;;28.90;24.40;;;;;;;13.17;95.04;95012.63;5046203;28;20427;-72
2021/05/28 09:55:17;;;;;;;27.67;22.90;;;;;;;12.98;96.52;95018.16;5066681;28;20037;-72
2021/05/28 09:57:49;;;;;;;33.55;26.55;;;;;;;12.84;99.69;95009.06;5072365;28;20059;-76
2021/05/28 10:00:25;;;;;;;33.25;25.10;;;;;;;12.72;100.00;95014.38;5077155;28;20036;-79
2021/05/28 10:03:16;;;;;;;36.17;26.33;;;;;;;12.74;100.00;95009.69;5073588;28;20060;-79
2021/05/28 10:05:45;;;;;;;28.85;24.35;;;;;;;12.76;100.00;95007.63;5055980;28;20040;-80
2021/05/28 10:08:13;;;;;;;32.90;25.00;;;;;;;12.85;100.00;95020.31;5072745;28;20044;-79
2021/05/28 10:10:42;;;;;;;32.58;26.27;;;;;;;12.88;100.00;95004.94;5075038;28;20036;-81
2021/05/28 10:13:11;;;;;;;24.75;20.52;;;;;;;12.90;100.00;95023.00;5074163;28;20505;-81
2021/05/28 10:15:49;;;;;;;27.48;20.98;;;;;;;12.96;100.00;95014.19;5072471;28;20048;-81
2021/05/28 10:18:17;;;;;;;24.77;20.45;;;;;;;12.95;99.42;95020.47;5078085;28;20055;-82
2021/05/28 10:20:47;;;;;;;23.55;19.15;;;;;;;13.02;99.41;95021.09;5080724;28;20104;-83
2021/05/28 10:23:15;;;;;;;26.13;19.27;;;;;;;13.13;100.00;95017.56;5071657;28;20514;-82
2021/05/28 10:25:42;;;;;;;25.63;22.77;;;;;;;13.31;100.00;95018.34;5075862;28;20072;-80
2021/05/28 10:28:20;;;;;;;25.15;20.90;;;;;;;13.39;98.36;95010.06;5071149;28;20554;-80
2021/05/28 10:30:49;;;;;;;25.65;20.30;;;;;;;13.57;99.78;95012.34;5069710;28;20055;-79
2021/05/28 10:33:27;;;;;;;33.42;16.50;;;;;;;13.46;95.61;95013.28;5054506;28;20052;-78
2021/05/28 10:36:02;;;;;;;21.90;19.45;;;;;;;13.36;96.38;95021.00;5067962;28;20450;-77
2021/05/28 10:38:44;;;;;;;22.85;17.95;;;;;;;13.34;96.23;95023.06;5065368;28;20059;-76
2021/05/28 10:41:15;;;;;;;23.90;17.35;;;;;;;13.28;95.44;95018.78;5045141;28;20048;-75
2021/05/28 10:44:04;;;;;;;23.58;18.45;;;;;;;13.34;95.55;95007.38;5061986;28;20060;-74
2021/05/28 10:46:30;;;;;;;20.40;17.65;;;;;;;13.38;95.66;95024.19;5062863;28;20044;-74
2021/05/28 10:48:58;;;;;;;28.85;20.48;;;;;;;13.46;94.46;95015.91;5061082;28;20439;-74
2021/05/28 10:51:29;;;;;;;21.63;18.50;;;;;;;13.66;95.11;95015.31;5057926;28;20098;-73
2021/05/28 10:53:56;;;;;;;21.00;18.55;;;;;;;13.82;94.86;95013.66;5063303;28;20078;-73
2021/05/28 10:56:23;;;;;;;21.55;18.70;;;;;;;13.94;93.90;95031.88;5063547;28;20098;-72
2021/05/28 10:59:03;;;;;;;19.13;16.98;;;;;;;14.05;90.63;95011.81;5045070;28;20052;-72
2021/05/28 11:01:33;;;;;;;17.40;15.40;;;;;;;14.17;89.60;95009.81;5063126;28;20509;-71
2021/05/28 11:04:02;;;;;;;18.17;16.27;;;;;;;14.17;88.18;95015.06;5066640;28;20518;-72
2021/05/28 11:07:03;;;;;;;19.92;14.82;;;;;;;14.21;88.86;95018.75;5067670;28;20489;-71
2021/05/28 11:09:36;;;;;;;14.18;12.75;;;;;;;14.05;86.45;95022.28;5059864;28;20048;-71
2021/05/28 11:12:06;;;;;;;15.82;13.82;;;;;;;14.00;87.06;95017.78;5067549;28;20448;-71
2021/05/28 11:14:37;;;;;;;15.18;13.43;;;;;;;13.92;86.57;95019.03;5066469;28;20552;-71
2021/05/28 11:17:04;;;;;;;20.40;13.35;;;;;;;13.80;85.96;95025.44;5069723;28;20040;-71
2021/05/28 11:19:33;;;;;;;21.35;16.20;;;;;;;13.86;87.61;95022.59;5067201;28;20045;-71
2021/05/28 11:22:03;;;;;;;18.75;12.98;;;;;;;13.89;87.96;95019.50;5066547;28;20102;-71
2021/05/28 11:24:45;;;;;;;23.98;16.92;;;;;;;13.99;86.94;95023.25;5067084;28;20040;-72